createdAt,value
2018-07-13T00:01:14.036Z,22.67
2018-07-13T00:03:44.013Z,22.77
2018-07-13T00:06:14.073Z,21.93
2018-07-13T00:08:44.061Z,21.20
2018-07-13T00:11:14.146Z,21.43
2018-07-13T00:14:13.872Z,21.87
2018-07-13T00:16:44.963Z,19.57
2018-07-13T00:19:20.097Z,21.30
2018-07-13T00:21:48.788Z,22.40
2018-07-13T00:24:17.396Z,22.37
2018-07-13T00:26:45.944Z,21.93
2018-07-13T00:29:14.540Z,21.60
2018-07-13T00:31:43.737Z,19.70
2018-07-13T00:34:12.604Z,20.15
2018-07-13T00:36:41.164Z,21.13
2018-07-13T00:39:11.575Z,21.37
2018-07-13T00:41:40.184Z,20.87
2018-07-13T00:44:09.148Z,21.10
2018-07-13T00:46:37.676Z,21.60
2018-07-13T00:49:06.415Z,22.70
2018-07-13T00:51:35.013Z,23.37
2018-07-13T00:54:03.584Z,20.93
2018-07-13T00:56:32.132Z,22.30
2018-07-13T00:59:00.699Z,21.87
2018-07-13T01:01:29.241Z,23.63
2018-07-13T01:03:57.819Z,20.07
2018-07-13T01:06:26.347Z,22.05
2018-07-13T01:08:54.910Z,20.93
2018-07-13T01:11:23.452Z,21.97
2018-07-13T01:13:52.720Z,20.50
2018-07-13T01:16:21.264Z,21.62
2018-07-13T01:18:49.836Z,20.77
2018-07-13T01:21:18.375Z,21.50
2018-07-13T01:23:46.948Z,22.33
2018-07-13T01:26:15.500Z,20.77
2018-07-13T01:28:44.080Z,20.43
2018-07-13T01:31:12.620Z,20.10
2018-07-13T01:33:41.197Z,21.03
2018-07-13T01:36:09.721Z,21.57
2018-07-13T01:38:38.265Z,21.77
2018-07-13T01:41:06.789Z,20.30
2018-07-13T01:43:35.340Z,20.10
2018-07-13T01:46:03.884Z,21.63
2018-07-13T01:48:32.445Z,20.30
2018-07-13T01:51:00.964Z,19.60
2018-07-13T01:53:29.516Z,19.83
2018-07-13T01:55:58.065Z,20.80
2018-07-13T01:58:26.608Z,20.70
2018-07-13T02:00:55.111Z,19.70
2018-07-13T02:03:23.683Z,20.47
2018-07-13T02:05:52.189Z,19.67
2018-07-13T02:08:20.728Z,21.83
2018-07-13T02:10:49.256Z,20.93
2018-07-13T02:13:17.811Z,20.93
2018-07-13T02:15:46.380Z,21.07
2018-07-13T02:18:14.892Z,22.30
2018-07-13T02:20:44.043Z,22.52
2018-07-13T02:23:12.555Z,23.13
2018-07-13T02:25:41.100Z,21.60
2018-07-13T02:28:09.625Z,21.10
2018-07-13T02:30:38.165Z,22.13
2018-07-13T02:33:06.717Z,21.70
2018-07-13T02:35:35.286Z,22.27
2018-07-13T02:38:03.792Z,22.00
2018-07-13T02:40:32.342Z,21.57
2018-07-13T02:43:00.854Z,20.40
2018-07-13T02:45:29.405Z,20.45
2018-07-13T02:47:57.938Z,21.10
2018-07-13T02:50:26.491Z,19.63
2018-07-13T02:52:55.009Z,22.48
2018-07-13T02:55:23.553Z,21.07
2018-07-13T02:57:52.077Z,22.00
2018-07-13T03:00:20.644Z,21.03
2018-07-13T03:02:49.173Z,22.22
2018-07-13T03:05:17.720Z,20.70
2018-07-13T03:07:46.239Z,21.77
2018-07-13T03:10:14.801Z,20.30
2018-07-13T03:12:43.322Z,23.73
2018-07-13T03:15:11.905Z,22.30
2018-07-13T03:17:40.443Z,21.70
2018-07-13T03:20:09.306Z,23.57
2018-07-13T03:22:37.817Z,21.10
2018-07-13T03:25:06.548Z,21.77
2018-07-13T03:27:35.066Z,26.27
2018-07-13T03:30:03.645Z,21.95
2018-07-13T03:32:32.202Z,21.47
2018-07-13T03:35:00.746Z,21.00
2018-07-13T03:37:29.269Z,19.90
2018-07-13T03:39:57.841Z,19.20
2018-07-13T03:42:26.344Z,21.80
2018-07-13T03:44:54.888Z,21.73
2018-07-13T03:47:23.400Z,20.03
2018-07-13T03:49:51.944Z,20.43
2018-07-13T03:52:20.494Z,20.60
2018-07-13T03:54:49.039Z,22.97
2018-07-13T03:57:17.566Z,23.33
2018-07-13T03:59:46.138Z,22.30
2018-07-13T04:02:14.672Z,23.73
2018-07-13T04:04:43.225Z,23.10
2018-07-13T04:07:11.828Z,24.50
2018-07-13T04:09:40.296Z,24.57
2018-07-13T04:12:08.881Z,24.60
2018-07-13T04:14:37.491Z,24.83
2018-07-13T04:17:06.021Z,25.50
2018-07-13T04:19:34.600Z,24.97
2018-07-13T04:22:03.201Z,23.40
2018-07-13T04:24:31.778Z,26.33
2018-07-13T04:27:00.659Z,25.27
2018-07-13T04:29:29.188Z,23.70
2018-07-13T04:31:57.773Z,24.30
2018-07-13T04:34:26.333Z,25.72
2018-07-13T04:36:54.909Z,24.43
2018-07-13T04:39:23.430Z,23.12
2018-07-13T04:41:51.981Z,23.83
2018-07-13T04:44:20.511Z,23.40
2018-07-13T04:46:49.090Z,22.57
2018-07-13T04:49:17.648Z,22.23
2018-07-13T04:51:46.374Z,23.87
2018-07-13T04:54:14.940Z,23.30
2018-07-13T04:56:43.821Z,22.40
2018-07-13T04:59:12.457Z,25.03
2018-07-13T05:01:41.077Z,23.17
2018-07-13T05:04:09.644Z,23.83
2018-07-13T05:06:38.229Z,22.53
2018-07-13T05:09:07.728Z,24.20
2018-07-13T05:11:36.364Z,22.62
2018-07-13T05:14:04.945Z,24.87
2018-07-13T05:16:33.524Z,23.87
2018-07-13T05:19:02.037Z,22.77
2018-07-13T05:21:30.625Z,25.40
2018-07-13T05:23:59.193Z,24.50
2018-07-13T05:26:28.285Z,22.73
2018-07-13T05:28:56.891Z,22.83
2018-07-13T05:31:25.508Z,23.87
2018-07-13T05:33:54.088Z,24.13
2018-07-13T05:36:22.676Z,21.97
2018-07-13T05:38:51.244Z,22.57
2018-07-13T05:41:20.696Z,22.93
2018-07-13T05:43:49.446Z,23.30
2018-07-13T05:46:18.029Z,21.40
2018-07-13T05:48:46.587Z,22.93
2018-07-13T05:51:15.180Z,22.53
2018-07-13T05:53:43.745Z,22.03
2018-07-13T05:56:12.332Z,23.60
2018-07-13T05:58:40.893Z,20.90
2018-07-13T06:01:09.498Z,20.23
2018-07-13T06:03:38.055Z,21.20
2018-07-13T06:06:06.633Z,19.23
2018-07-13T06:08:35.212Z,21.30
2018-07-13T06:11:03.817Z,20.23
2018-07-13T06:13:32.381Z,19.27
2018-07-13T06:16:00.975Z,19.43
2018-07-13T06:18:29.536Z,18.30
2018-07-13T06:20:58.057Z,19.48
2018-07-13T06:23:26.624Z,18.77
2018-07-13T06:25:55.141Z,18.77
2018-07-13T06:28:23.813Z,19.37
2018-07-13T06:30:52.336Z,18.50
2018-07-13T06:33:20.958Z,18.70
2018-07-13T06:35:49.471Z,18.27
2018-07-13T06:38:18.044Z,17.33
2018-07-13T06:40:47.947Z,18.50
2018-07-13T06:43:17.208Z,17.85
2018-07-13T06:45:45.729Z,17.90
2018-07-13T06:48:17.352Z,18.37
2018-07-13T06:50:45.907Z,17.92
2018-07-13T06:53:16.089Z,16.83
2018-07-13T06:55:45.015Z,17.77
2018-07-13T06:58:24.925Z,17.57
2018-07-13T07:00:56.912Z,18.92
2018-07-13T07:03:26.162Z,17.07
2018-07-13T07:05:59.003Z,17.90
2018-07-13T07:08:27.617Z,17.07
2018-07-13T07:10:56.707Z,20.17
2018-07-13T07:13:38.856Z,17.53
2018-07-13T07:16:07.400Z,16.90
2018-07-13T07:18:36.172Z,17.00
2018-07-13T07:21:04.728Z,17.60
2018-07-13T07:23:33.663Z,16.37
2018-07-13T07:26:03.044Z,16.60
2018-07-13T07:28:31.625Z,15.43
2018-07-13T07:31:01.154Z,16.63
2018-07-13T07:33:29.780Z,16.40
2018-07-13T07:35:58.304Z,15.47
2018-07-13T07:38:29.705Z,20.17
2018-07-13T07:40:58.728Z,15.47
2018-07-13T07:43:34.353Z,15.30
2018-07-13T07:46:03.071Z,15.40
2018-07-13T07:48:31.669Z,14.60
2018-07-13T07:51:00.200Z,15.87
2018-07-13T07:53:28.792Z,14.23
2018-07-13T07:55:58.161Z,14.73
2018-07-13T07:58:26.892Z,14.10
2018-07-13T08:00:55.428Z,13.87
2018-07-13T08:03:23.952Z,13.87
2018-07-13T08:05:52.573Z,15.47
2018-07-13T08:08:21.080Z,13.90
2018-07-13T08:10:53.143Z,12.67
2018-07-13T08:13:21.812Z,14.00
2018-07-13T08:15:51.424Z,14.97
2018-07-13T08:18:20.581Z,14.03
2018-07-13T08:21:05.061Z,13.40
2018-07-13T08:23:45.639Z,14.23
2018-07-13T08:26:16.836Z,13.60
2018-07-13T08:28:58.276Z,13.70
2018-07-13T08:31:39.613Z,18.10
2018-07-13T08:34:08.274Z,13.47
2018-07-13T08:36:37.985Z,15.97
2018-07-13T08:39:07.607Z,15.17
2018-07-13T08:41:36.836Z,14.83
2018-07-13T08:44:05.553Z,14.93
2018-07-13T08:46:34.221Z,15.00
2018-07-13T08:49:02.817Z,14.17
2018-07-13T08:51:31.991Z,15.50
2018-07-13T08:54:01.068Z,19.77
2018-07-13T08:56:30.329Z,16.55
2018-07-13T08:59:00.708Z,15.30
2018-07-13T09:01:29.365Z,14.00
2018-07-13T09:03:58.499Z,15.03
2018-07-13T09:06:29.224Z,38.83
2018-07-13T09:08:58.073Z,15.23
2018-07-13T09:11:26.677Z,15.30
2018-07-13T09:13:56.244Z,17.30
2018-07-13T09:16:25.609Z,15.60
2018-07-13T09:18:54.316Z,21.57
2018-07-13T09:21:22.901Z,17.83
2018-07-13T09:24:04.037Z,15.47
2018-07-13T09:26:32.696Z,14.23
2018-07-13T09:29:01.918Z,15.37
2018-07-13T09:31:31.941Z,13.13
2018-07-13T09:34:00.829Z,11.00
2018-07-13T09:36:31.064Z,10.47
2018-07-13T09:38:59.904Z,11.67
2018-07-13T09:41:28.548Z,10.73
2018-07-13T09:43:57.258Z,10.87
2018-07-13T09:46:26.047Z,11.53
2018-07-13T09:48:55.130Z,11.73
2018-07-13T09:51:23.764Z,11.23
2018-07-13T09:53:52.681Z,11.23
2018-07-13T09:56:27.273Z,11.67
2018-07-13T09:58:56.270Z,10.93
2018-07-13T10:01:25.356Z,10.93
2018-07-13T10:04:09.310Z,10.35
2018-07-13T10:06:51.127Z,9.90
2018-07-13T10:09:32.868Z,9.83
2018-07-13T10:12:21.459Z,9.33
2018-07-13T10:15:00.915Z,9.90
2018-07-13T10:17:41.203Z,8.80
2018-07-13T10:20:17.698Z,9.20
2018-07-13T10:22:46.716Z,9.73
2018-07-13T10:25:15.409Z,8.90
2018-07-13T10:27:44.052Z,8.80
2018-07-13T10:30:13.748Z,8.27
2018-07-13T10:32:44.372Z,8.63
2018-07-13T10:35:13.104Z,7.87
2018-07-13T10:37:42.896Z,7.73
2018-07-13T10:40:11.441Z,7.67
2018-07-13T10:42:40.014Z,6.87
2018-07-13T10:45:08.945Z,6.87
2018-07-13T10:47:38.400Z,6.57
2018-07-13T10:50:07.649Z,7.30
2018-07-13T10:52:47.782Z,7.80
2018-07-13T10:55:27.158Z,6.97
2018-07-13T10:58:06.867Z,8.30
2018-07-13T11:00:54.573Z,7.67
2018-07-13T11:03:24.947Z,7.27
2018-07-13T11:05:53.537Z,7.05
2018-07-13T11:08:22.989Z,6.70
2018-07-13T11:10:52.232Z,8.50
2018-07-13T11:13:22.964Z,8.03
2018-07-13T11:15:51.632Z,8.17
2018-07-13T11:18:24.721Z,10.40
2018-07-13T11:20:54.409Z,9.45
2018-07-13T11:23:25.597Z,13.33
2018-07-13T11:25:54.613Z,10.00
2018-07-13T11:28:25.100Z,11.10
2018-07-13T11:30:55.847Z,11.20
2018-07-13T11:33:24.727Z,10.27
2018-07-13T11:35:56.007Z,10.80
2018-07-13T11:38:25.165Z,10.47
2018-07-13T11:40:54.801Z,9.93
2018-07-13T11:43:25.090Z,10.03
2018-07-13T11:45:54.916Z,11.00
2018-07-13T11:48:24.510Z,10.00
2018-07-13T11:50:57.676Z,9.77
2018-07-13T11:53:33.261Z,10.27
2018-07-13T11:56:02.404Z,9.50
2018-07-13T11:58:31.331Z,10.00
2018-07-13T12:01:00.150Z,9.73
2018-07-13T12:03:28.927Z,9.13
2018-07-13T12:06:12.076Z,8.90
2018-07-13T12:08:57.028Z,8.57
2018-07-13T12:11:35.376Z,9.67
2018-07-13T12:14:04.401Z,9.30
2018-07-13T12:16:32.927Z,9.23
2018-07-13T12:19:01.629Z,9.40
2018-07-13T12:21:32.290Z,28.73
2018-07-13T12:24:00.992Z,9.53
2018-07-13T12:26:29.504Z,9.27
2018-07-13T12:28:58.065Z,9.37
2018-07-13T12:31:27.229Z,10.07
2018-07-13T12:33:55.809Z,9.53
2018-07-13T12:36:32.867Z,9.20
2018-07-13T12:39:11.680Z,9.00
2018-07-13T12:44:48.583Z,9.88
2018-07-13T12:47:31.658Z,8.47
2018-07-13T12:50:12.290Z,9.40
2018-07-13T12:58:46.077Z,9.73
2018-07-13T13:01:25.627Z,9.30
2018-07-13T13:04:13.742Z,8.70
2018-07-13T13:07:01.892Z,9.20
2018-07-13T13:12:38.198Z,9.73
2018-07-13T13:15:26.285Z,9.03
2018-07-13T13:18:10.023Z,9.03
2018-07-13T13:23:54.954Z,8.97
2018-07-13T13:26:36.832Z,8.57
2018-07-13T13:29:18.432Z,8.43
2018-07-13T13:37:30.149Z,7.40
2018-07-13T13:43:04.577Z,7.10
2018-07-13T13:45:51.413Z,6.97
2018-07-13T13:48:35.804Z,7.20
2018-07-13T13:51:18.734Z,7.13
2018-07-13T13:54:03.634Z,8.67
2018-07-13T13:56:45.228Z,7.47
2018-07-13T13:59:27.281Z,7.60
2018-07-13T14:02:10.385Z,7.73
2018-07-13T14:04:57.997Z,8.40
2018-07-13T14:07:39.737Z,6.63
2018-07-13T14:10:26.921Z,7.17
2018-07-13T14:13:08.579Z,7.13
2018-07-13T14:15:55.928Z,10.17
2018-07-13T14:18:40.125Z,8.03
2018-07-13T14:21:29.349Z,14.83
2018-07-13T14:24:16.614Z,7.27
2018-07-13T14:26:46.293Z,11.00
2018-07-13T14:29:14.844Z,7.13
2018-07-13T14:31:43.372Z,8.87
2018-07-13T14:34:12.801Z,7.07
2018-07-13T14:36:43.080Z,7.67
2018-07-13T14:39:11.921Z,7.33
2018-07-13T14:41:40.445Z,8.17
2018-07-13T14:44:09.025Z,7.25
2018-07-13T14:46:37.591Z,7.30
2018-07-13T14:49:06.644Z,9.30
2018-07-13T14:51:35.251Z,7.73
2018-07-13T14:54:03.873Z,6.95
2018-07-13T14:56:32.514Z,7.57
2018-07-13T14:59:01.177Z,8.27
2018-07-13T15:01:30.042Z,8.17
2018-07-13T15:03:58.626Z,8.30
2018-07-13T15:06:27.548Z,7.20
2018-07-13T15:08:56.224Z,6.97
2018-07-13T15:11:25.574Z,7.23
2018-07-13T15:13:54.282Z,7.80
2018-07-13T15:16:23.013Z,8.07
2018-07-13T15:18:53.147Z,7.27
2018-07-13T15:21:21.721Z,7.20
2018-07-13T15:23:51.745Z,8.47
2018-07-13T15:26:20.349Z,7.00
2018-07-13T15:28:48.857Z,6.03
2018-07-13T15:31:17.527Z,5.57
2018-07-13T15:33:46.086Z,6.60
2018-07-13T15:36:14.637Z,4.40
2018-07-13T15:41:13.140Z,5.00
2018-07-13T15:43:41.752Z,4.60
2018-07-13T15:46:10.616Z,5.23
2018-07-13T15:48:39.220Z,4.73
2018-07-13T15:51:07.809Z,4.85
2018-07-13T15:53:36.345Z,4.27
2018-07-13T15:56:05.845Z,4.30
2018-07-13T15:58:34.468Z,7.10
2018-07-13T16:01:03.024Z,4.63
2018-07-13T16:03:31.561Z,5.23
2018-07-13T16:06:00.366Z,4.63
2018-07-13T16:08:30.292Z,4.47
2018-07-13T16:10:59.317Z,5.00
2018-07-13T16:13:27.876Z,5.80
2018-07-13T16:15:56.421Z,4.17
2018-07-13T16:18:25.353Z,6.87
2018-07-13T16:20:56.264Z,4.73
2018-07-13T16:23:24.841Z,4.50
2018-07-13T16:25:53.393Z,5.43
2018-07-13T16:28:22.220Z,4.50
2018-07-13T16:30:51.232Z,4.70
2018-07-13T16:33:19.953Z,4.43
2018-07-13T16:35:48.884Z,3.53
2018-07-13T16:38:17.405Z,3.60
2018-07-13T16:40:45.947Z,3.87
2018-07-13T16:43:14.493Z,6.33
2018-07-13T16:45:43.029Z,4.25
2018-07-13T16:48:11.590Z,7.20
2018-07-13T16:50:40.514Z,5.10
2018-07-13T16:53:08.961Z,4.10
2018-07-13T16:55:37.489Z,3.92
2018-07-13T16:58:06.069Z,3.80
2018-07-13T17:00:35.100Z,4.20
2018-07-13T17:03:03.853Z,4.13
2018-07-13T17:05:32.383Z,3.87
2018-07-13T17:08:00.993Z,4.47
2018-07-13T17:10:29.537Z,3.87
2018-07-13T17:12:58.068Z,3.90
2018-07-13T17:15:27.758Z,3.53
2018-07-13T17:17:58.051Z,3.40
2018-07-13T17:20:27.601Z,3.90
2018-07-13T17:22:56.113Z,4.43
2018-07-13T17:25:25.531Z,3.63
2018-07-13T17:27:54.208Z,3.50
2018-07-13T17:30:22.756Z,4.43
2018-07-13T17:32:51.395Z,3.67
2018-07-13T17:35:19.960Z,3.50
2018-07-13T17:37:48.523Z,4.13
2018-07-13T17:40:17.059Z,8.73
2018-07-13T17:42:45.614Z,4.00
2018-07-13T17:45:15.652Z,3.93
2018-07-13T17:47:45.126Z,4.00
2018-07-13T17:50:13.655Z,5.37
2018-07-13T17:52:42.372Z,3.52
2018-07-13T17:55:10.924Z,4.27
2018-07-13T17:57:39.469Z,3.57
2018-07-13T18:00:08.324Z,3.40
2018-07-13T18:02:37.742Z,4.15
2018-07-13T18:05:06.621Z,5.63
2018-07-13T18:07:35.965Z,5.60
2018-07-13T18:10:06.940Z,3.67
2018-07-13T18:12:36.376Z,4.10
2018-07-13T18:15:05.164Z,3.77
2018-07-13T18:17:33.808Z,27.77
2018-07-13T18:20:02.748Z,34.47
2018-07-13T18:22:33.353Z,30.53
2018-07-13T18:25:03.697Z,17.83
2018-07-13T18:27:34.011Z,19.70
2018-07-13T18:30:03.060Z,11.30
2018-07-13T18:32:32.776Z,4.17
2018-07-13T18:35:11.289Z,4.03
2018-07-13T18:37:50.667Z,4.57
2018-07-13T18:40:29.696Z,3.90
2018-07-13T18:43:11.891Z,3.73
2018-07-13T18:45:53.534Z,3.73
2018-07-13T18:48:24.471Z,3.80
2018-07-13T18:50:53.512Z,3.47
2018-07-13T18:53:25.564Z,2.97
2018-07-13T18:55:55.681Z,3.70
2018-07-13T18:58:25.026Z,3.67
2018-07-13T19:00:54.718Z,3.10
2018-07-13T19:03:24.681Z,3.17
2018-07-13T19:05:53.352Z,3.60
2018-07-13T19:08:22.284Z,3.37
2018-07-13T19:10:50.857Z,3.33
2018-07-13T19:13:19.425Z,3.40
2018-07-13T19:15:47.964Z,3.30
2018-07-13T19:18:17.158Z,3.30
2018-07-13T19:20:46.867Z,3.55
2018-07-13T19:23:16.432Z,3.33
2018-07-13T19:25:45.990Z,3.63
2018-07-13T19:28:14.585Z,3.93
2018-07-13T19:30:44.087Z,3.80
2018-07-13T19:33:12.717Z,4.33
2018-07-13T19:35:41.270Z,3.23
2018-07-13T19:38:09.777Z,3.40
2018-07-13T19:40:38.332Z,4.10
2018-07-13T19:43:06.893Z,4.33
2018-07-13T19:45:37.441Z,5.40
2018-07-13T19:48:06.484Z,5.47
2018-07-13T19:50:53.725Z,4.97
2018-07-13T19:53:31.972Z,8.70
2018-07-13T19:56:10.450Z,6.40
2018-07-13T19:58:54.840Z,3.47
2018-07-13T20:04:19.159Z,4.60
2018-07-13T20:06:49.779Z,5.50
2018-07-13T20:09:22.561Z,5.97
2018-07-13T20:11:55.506Z,5.35
2018-07-13T20:14:26.491Z,5.70
2018-07-13T20:16:55.078Z,5.17
2018-07-13T20:19:24.333Z,5.17
2018-07-13T20:21:54.176Z,5.23
2018-07-13T20:24:28.497Z,5.93
2018-07-13T20:26:59.516Z,5.47
2018-07-13T20:29:28.089Z,5.23
2018-07-13T20:31:57.715Z,5.27
2018-07-13T20:34:26.455Z,5.30
2018-07-13T20:36:54.966Z,4.70
2018-07-13T20:39:23.554Z,5.70
2018-07-13T20:41:52.116Z,4.93
2018-07-13T20:44:28.586Z,5.10
2018-07-13T20:47:03.517Z,5.33
2018-07-13T20:49:32.312Z,5.53
2018-07-13T20:52:00.821Z,4.83
2018-07-13T20:54:29.486Z,4.90
2018-07-13T20:56:59.000Z,5.33
2018-07-13T20:59:28.426Z,5.23
2018-07-13T21:02:02.202Z,5.17
2018-07-13T21:04:33.880Z,5.77
2018-07-13T21:07:04.728Z,5.10
2018-07-13T21:09:34.188Z,5.07
2018-07-13T21:12:03.715Z,6.47
2018-07-13T21:14:34.306Z,6.80
2018-07-13T21:17:09.443Z,5.87
2018-07-13T21:19:39.431Z,5.30
2018-07-13T21:22:07.977Z,5.63
2018-07-13T21:24:36.492Z,5.00
2018-07-13T21:27:10.419Z,4.87
2018-07-13T21:29:43.519Z,5.20
2018-07-13T21:32:12.173Z,5.50
2018-07-13T21:34:45.255Z,5.40
2018-07-13T21:37:18.901Z,5.47
2018-07-13T21:39:49.116Z,5.20
2018-07-13T21:42:20.701Z,5.17
2018-07-13T21:44:51.585Z,5.93
2018-07-13T21:47:21.809Z,6.00
2018-07-13T21:49:51.609Z,5.97
2018-07-13T21:52:25.267Z,5.17
2018-07-13T21:54:54.206Z,6.33
2018-07-13T21:57:25.541Z,5.75
2018-07-13T21:59:59.343Z,6.67
2018-07-13T22:02:29.752Z,5.60
2018-07-13T22:05:00.905Z,5.03
2018-07-13T22:07:32.932Z,4.97
2018-07-13T22:10:09.586Z,5.20
2018-07-13T22:12:43.383Z,5.87
2018-07-13T22:15:15.213Z,5.13
2018-07-13T22:17:50.716Z,6.40
2018-07-13T22:20:25.695Z,5.40
2018-07-13T22:22:56.261Z,5.60
2018-07-13T22:25:25.795Z,5.63
2018-07-13T22:27:56.478Z,5.87
2018-07-13T22:30:28.025Z,5.37
2018-07-13T22:32:57.233Z,6.07
2018-07-13T22:35:30.027Z,6.77
2018-07-13T22:38:00.069Z,7.27
2018-07-13T22:40:29.803Z,6.57
2018-07-13T22:42:59.425Z,7.30
2018-07-13T22:45:30.372Z,6.63
2018-07-13T22:48:01.868Z,6.40
2018-07-13T22:50:31.975Z,6.40
2018-07-13T22:53:01.403Z,6.73
2018-07-13T22:55:34.056Z,6.93
2018-07-13T22:58:03.968Z,6.70
2018-07-13T23:00:33.836Z,8.40
2018-07-13T23:03:04.273Z,6.83
2018-07-13T23:05:33.899Z,6.67
2018-07-13T23:08:03.138Z,7.93
2018-07-13T23:10:33.064Z,6.50
2018-07-13T23:13:02.992Z,7.27
2018-07-13T23:15:33.267Z,6.90
2018-07-13T23:18:03.708Z,7.53
2018-07-13T23:20:33.693Z,7.50
2018-07-13T23:23:03.805Z,7.13
2018-07-13T23:25:33.697Z,6.87
2018-07-13T23:28:03.890Z,8.13
2018-07-13T23:30:33.700Z,7.07
2018-07-13T23:33:04.136Z,7.37
2018-07-13T23:35:34.051Z,7.40
2018-07-13T23:38:03.912Z,6.93
2018-07-13T23:40:32.684Z,8.47
2018-07-13T23:43:02.892Z,8.37
2018-07-13T23:45:33.077Z,7.33
2018-07-13T23:48:02.839Z,6.97
2018-07-13T23:50:32.785Z,7.90
2018-07-13T23:53:02.824Z,7.83
2018-07-13T23:55:33.129Z,7.97
2018-07-13T23:58:03.460Z,7.63
